sensor_id;sensor_type;location;lat;lon;timestamp;temperature;humidity
10419;DHT22;5256;48.728;9.140;2022-09-09T00:01:48;12.10;99.90
10419;DHT22;5256;48.728;9.140;2022-09-09T00:09:56;11.90;99.90
10419;DHT22;5256;48.728;9.140;2022-09-09T00:15:19;12.00;99.90
10419;DHT22;5256;48.728;9.140;2022-09-09T00:20:49;12.00;99.90
10419;DHT22;5256;48.728;9.140;2022-09-09T00:23:30;12.10;99.90
10419;DHT22;5256;48.728;9.140;2022-09-09T00:26:13;12.20;99.90
10419;DHT22;5256;48.728;9.140;2022-09-09T00:29:05;12.30;99.90
10419;DHT22;5256;48.728;9.140;2022-09-09T00:31:35;12.40;99.90
10419;DHT22;5256;48.728;9.140;2022-09-09T00:34:13;12.40;99.90
10419;DHT22;5256;48.728;9.140;2022-09-09T00:36:40;12.50;99.90
10419;DHT22;5256;48.728;9.140;2022-09-09T00:39:13;12.60;99.90
10419;DHT22;5256;48.728;9.140;2022-09-09T00:42:06;12.80;99.90
10419;DHT22;5256;48.728;9.140;2022-09-09T00:45:02;12.90;99.90
10419;DHT22;5256;48.728;9.140;2022-09-09T00:47:45;13.10;99.90
10419;DHT22;5256;48.728;9.140;2022-09-09T00:53:05;13.30;99.90
10419;DHT22;5256;48.728;9.140;2022-09-09T00:58:16;13.30;99.90
10419;DHT22;5256;48.728;9.140;2022-09-09T01:00:46;13.30;99.90
10419;DHT22;5256;48.728;9.140;2022-09-09T01:06:01;13.40;99.90
10419;DHT22;5256;48.728;9.140;2022-09-09T01:09:04;13.50;99.90
10419;DHT22;5256;48.728;9.140;2022-09-09T01:17:17;13.60;99.90
10419;DHT22;5256;48.728;9.140;2022-09-09T01:22:33;13.50;99.90
10419;DHT22;5256;48.728;9.140;2022-09-09T01:27:59;13.40;99.90
10419;DHT22;5256;48.728;9.140;2022-09-09T01:30:26;13.40;99.90
10419;DHT22;5256;48.728;9.140;2022-09-09T01:32:55;13.40;99.90
10419;DHT22;5256;48.728;9.140;2022-09-09T01:35:32;13.40;99.90
10419;DHT22;5256;48.728;9.140;2022-09-09T01:38:00;13.30;99.90
10419;DHT22;5256;48.728;9.140;2022-09-09T01:40:26;13.20;99.90
10419;DHT22;5256;48.728;9.140;2022-09-09T01:42:52;13.20;99.90
10419;DHT22;5256;48.728;9.140;2022-09-09T01:45:18;13.10;99.90
10419;DHT22;5256;48.728;9.140;2022-09-09T01:47:45;13.10;99.90
10419;DHT22;5256;48.728;9.140;2022-09-09T01:50:13;13.00;99.90
10419;DHT22;5256;48.728;9.140;2022-09-09T01:52:40;13.00;99.90
10419;DHT22;5256;48.728;9.140;2022-09-09T01:55:07;13.10;99.90
10419;DHT22;5256;48.728;9.140;2022-09-09T02:00:48;13.20;99.90
10419;DHT22;5256;48.728;9.140;2022-09-09T02:03:25;13.30;99.90
10419;DHT22;5256;48.728;9.140;2022-09-09T02:06:23;13.30;99.90
10419;DHT22;5256;48.728;9.140;2022-09-09T02:08:53;13.20;99.90
10419;DHT22;5256;48.728;9.140;2022-09-09T02:11:26;13.10;99.90
10419;DHT22;5256;48.728;9.140;2022-09-09T02:14:07;13.00;99.90
10419;DHT22;5256;48.728;9.140;2022-09-09T02:16:42;12.90;99.90
10419;DHT22;5256;48.728;9.140;2022-09-09T02:19:29;12.80;99.90
10419;DHT22;5256;48.728;9.140;2022-09-09T02:21:59;12.80;99.90
10419;DHT22;5256;48.728;9.140;2022-09-09T02:24:27;12.70;99.90
10419;DHT22;5256;48.728;9.140;2022-09-09T02:26:55;12.60;99.90
10419;DHT22;5256;48.728;9.140;2022-09-09T02:29:29;12.60;99.90
10419;DHT22;5256;48.728;9.140;2022-09-09T02:31:59;12.40;99.90
10419;DHT22;5256;48.728;9.140;2022-09-09T02:34:27;12.40;99.90
10419;DHT22;5256;48.728;9.140;2022-09-09T02:36:55;12.30;99.90
10419;DHT22;5256;48.728;9.140;2022-09-09T02:39:22;12.30;99.90
10419;DHT22;5256;48.728;9.140;2022-09-09T02:41:48;12.20;99.90
10419;DHT22;5256;48.728;9.140;2022-09-09T02:44:16;12.10;99.90
10419;DHT22;5256;48.728;9.140;2022-09-09T02:47:05;12.10;99.90
10419;DHT22;5256;48.728;9.140;2022-09-09T02:50:02;12.00;99.90
10419;DHT22;5256;48.728;9.140;2022-09-09T02:52:33;12.00;99.90
10419;DHT22;5256;48.728;9.140;2022-09-09T02:55:10;11.90;99.90
10419;DHT22;5256;48.728;9.140;2022-09-09T02:57:38;11.90;99.90
10419;DHT22;5256;48.728;9.140;2022-09-09T03:00:05;11.80;99.90
10419;DHT22;5256;48.728;9.140;2022-09-09T03:02:30;11.70;99.90
10419;DHT22;5256;48.728;9.140;2022-09-09T03:04:56;11.70;99.90
10419;DHT22;5256;48.728;9.140;2022-09-09T03:07:22;11.80;99.90
10419;DHT22;5256;48.728;9.140;2022-09-09T03:09:47;11.80;99.90
10419;DHT22;5256;48.728;9.140;2022-09-09T03:12:14;11.90;99.90
10419;DHT22;5256;48.728;9.140;2022-09-09T03:14:39;11.90;99.90
10419;DHT22;5256;48.728;9.140;2022-09-09T03:17:06;12.00;99.90
10419;DHT22;5256;48.728;9.140;2022-09-09T03:19:31;12.10;99.90
10419;DHT22;5256;48.728;9.140;2022-09-09T03:21:58;12.20;99.90
10419;DHT22;5256;48.728;9.140;2022-09-09T03:24:24;12.20;99.90
10419;DHT22;5256;48.728;9.140;2022-09-09T03:26:49;12.20;99.90
10419;DHT22;5256;48.728;9.140;2022-09-09T03:29:16;12.20;99.90
10419;DHT22;5256;48.728;9.140;2022-09-09T03:31:43;12.20;99.90
10419;DHT22;5256;48.728;9.140;2022-09-09T03:34:09;12.10;99.90
10419;DHT22;5256;48.728;9.140;2022-09-09T03:36:35;12.10;99.90
10419;DHT22;5256;48.728;9.140;2022-09-09T03:39:01;12.20;99.90
10419;DHT22;5256;48.728;9.140;2022-09-09T03:41:28;12.10;99.90
10419;DHT22;5256;48.728;9.140;2022-09-09T03:43:54;12.10;99.90
10419;DHT22;5256;48.728;9.140;2022-09-09T03:46:21;12.10;99.90
10419;DHT22;5256;48.728;9.140;2022-09-09T03:48:47;12.10;99.90
10419;DHT22;5256;48.728;9.140;2022-09-09T03:51:13;12.10;99.90
10419;DHT22;5256;48.728;9.140;2022-09-09T03:53:39;12.20;99.90
10419;DHT22;5256;48.728;9.140;2022-09-09T03:56:06;12.20;99.90
10419;DHT22;5256;48.728;9.140;2022-09-09T03:58:33;12.30;99.90
10419;DHT22;5256;48.728;9.140;2022-09-09T04:01:04;12.30;99.90
10419;DHT22;5256;48.728;9.140;2022-09-09T04:03:30;12.30;99.90
10419;DHT22;5256;48.728;9.140;2022-09-09T04:05:58;12.20;99.90
10419;DHT22;5256;48.728;9.140;2022-09-09T04:08:24;12.30;99.90
10419;DHT22;5256;48.728;9.140;2022-09-09T04:10:54;12.30;99.90
10419;DHT22;5256;48.728;9.140;2022-09-09T04:13:24;12.20;99.90
10419;DHT22;5256;48.728;9.140;2022-09-09T04:15:57;12.20;99.90
10419;DHT22;5256;48.728;9.140;2022-09-09T04:18:24;12.10;99.90
10419;DHT22;5256;48.728;9.140;2022-09-09T04:20:50;12.10;99.90
10419;DHT22;5256;48.728;9.140;2022-09-09T04:23:17;12.10;99.90
10419;DHT22;5256;48.728;9.140;2022-09-09T04:25:48;12.20;99.90
10419;DHT22;5256;48.728;9.140;2022-09-09T04:28:15;12.20;99.90
10419;DHT22;5256;48.728;9.140;2022-09-09T04:30:41;12.30;99.90
10419;DHT22;5256;48.728;9.140;2022-09-09T04:33:07;12.40;99.90
10419;DHT22;5256;48.728;9.140;2022-09-09T04:35:33;12.50;99.90
10419;DHT22;5256;48.728;9.140;2022-09-09T04:37:59;12.50;99.90
10419;DHT22;5256;48.728;9.140;2022-09-09T04:40:25;12.60;99.90
10419;DHT22;5256;48.728;9.140;2022-09-09T04:42:50;12.70;99.90
10419;DHT22;5256;48.728;9.140;2022-09-09T04:45:16;12.70;99.90
10419;DHT22;5256;48.728;9.140;2022-09-09T04:47:42;12.70;99.90
10419;DHT22;5256;48.728;9.140;2022-09-09T04:50:08;12.60;99.90
10419;DHT22;5256;48.728;9.140;2022-09-09T04:52:37;12.50;99.90
10419;DHT22;5256;48.728;9.140;2022-09-09T04:55:03;12.40;99.90
10419;DHT22;5256;48.728;9.140;2022-09-09T04:57:29;12.30;99.90
10419;DHT22;5256;48.728;9.140;2022-09-09T04:59:57;12.20;99.90
10419;DHT22;5256;48.728;9.140;2022-09-09T05:02:23;12.30;99.90
10419;DHT22;5256;48.728;9.140;2022-09-09T05:04:48;12.40;99.90
10419;DHT22;5256;48.728;9.140;2022-09-09T05:07:15;12.40;99.90
10419;DHT22;5256;48.728;9.140;2022-09-09T05:09:40;12.40;99.90
10419;DHT22;5256;48.728;9.140;2022-09-09T05:12:06;12.50;99.90
10419;DHT22;5256;48.728;9.140;2022-09-09T05:14:31;12.60;99.90
10419;DHT22;5256;48.728;9.140;2022-09-09T05:16:57;12.70;99.90
10419;DHT22;5256;48.728;9.140;2022-09-09T05:19:23;12.80;99.90
10419;DHT22;5256;48.728;9.140;2022-09-09T05:21:49;12.90;99.90
10419;DHT22;5256;48.728;9.140;2022-09-09T05:24:15;13.10;99.90
10419;DHT22;5256;48.728;9.140;2022-09-09T05:26:42;13.10;99.90
10419;DHT22;5256;48.728;9.140;2022-09-09T05:29:08;13.30;99.90
10419;DHT22;5256;48.728;9.140;2022-09-09T05:31:34;13.40;99.90
10419;DHT22;5256;48.728;9.140;2022-09-09T05:33:59;13.40;99.90
10419;DHT22;5256;48.728;9.140;2022-09-09T05:36:25;13.60;99.90
10419;DHT22;5256;48.728;9.140;2022-09-09T05:38:51;13.70;99.90
10419;DHT22;5256;48.728;9.140;2022-09-09T05:41:19;13.90;99.90
10419;DHT22;5256;48.728;9.140;2022-09-09T05:43:45;14.10;99.90
10419;DHT22;5256;48.728;9.140;2022-09-09T05:46:14;14.20;99.90
10419;DHT22;5256;48.728;9.140;2022-09-09T05:48:42;14.20;99.90
10419;DHT22;5256;48.728;9.140;2022-09-09T05:51:10;14.20;99.90
10419;DHT22;5256;48.728;9.140;2022-09-09T05:53:38;14.30;99.90
10419;DHT22;5256;48.728;9.140;2022-09-09T05:56:09;14.40;99.90
10419;DHT22;5256;48.728;9.140;2022-09-09T05:58:36;14.50;99.90
10419;DHT22;5256;48.728;9.140;2022-09-09T06:01:10;14.60;99.90
10419;DHT22;5256;48.728;9.140;2022-09-09T06:03:37;14.60;99.90
10419;DHT22;5256;48.728;9.140;2022-09-09T06:06:04;14.60;99.90
10419;DHT22;5256;48.728;9.140;2022-09-09T06:08:34;14.60;99.90
10419;DHT22;5256;48.728;9.140;2022-09-09T06:11:06;14.70;99.90
10419;DHT22;5256;48.728;9.140;2022-09-09T06:13:32;14.60;99.90
10419;DHT22;5256;48.728;9.140;2022-09-09T06:15:58;14.60;99.90
10419;DHT22;5256;48.728;9.140;2022-09-09T06:18:24;14.60;99.90
10419;DHT22;5256;48.728;9.140;2022-09-09T06:20:58;14.80;99.90
10419;DHT22;5256;48.728;9.140;2022-09-09T06:23:26;14.90;99.90
10419;DHT22;5256;48.728;9.140;2022-09-09T06:26:09;15.00;99.90
10419;DHT22;5256;48.728;9.140;2022-09-09T06:28:36;15.00;99.90
10419;DHT22;5256;48.728;9.140;2022-09-09T06:31:04;15.20;99.90
10419;DHT22;5256;48.728;9.140;2022-09-09T06:33:35;15.20;99.90
10419;DHT22;5256;48.728;9.140;2022-09-09T06:36:02;15.30;99.90
10419;DHT22;5256;48.728;9.140;2022-09-09T06:38:29;15.30;99.90
10419;DHT22;5256;48.728;9.140;2022-09-09T06:40:56;15.40;99.90
10419;DHT22;5256;48.728;9.140;2022-09-09T06:43:23;15.50;99.90
10419;DHT22;5256;48.728;9.140;2022-09-09T06:45:55;15.60;99.90
10419;DHT22;5256;48.728;9.140;2022-09-09T06:48:21;15.70;99.90
10419;DHT22;5256;48.728;9.140;2022-09-09T06:50:46;15.80;99.90
10419;DHT22;5256;48.728;9.140;2022-09-09T06:53:12;15.90;99.90
10419;DHT22;5256;48.728;9.140;2022-09-09T06:55:37;16.00;99.90
10419;DHT22;5256;48.728;9.140;2022-09-09T06:58:08;16.10;99.90
10419;DHT22;5256;48.728;9.140;2022-09-09T07:00:34;16.20;99.90
10419;DHT22;5256;48.728;9.140;2022-09-09T07:02:59;16.30;99.90
10419;DHT22;5256;48.728;9.140;2022-09-09T07:05:25;16.50;99.90
10419;DHT22;5256;48.728;9.140;2022-09-09T07:07:51;16.60;99.90
10419;DHT22;5256;48.728;9.140;2022-09-09T07:10:17;16.70;99.90
10419;DHT22;5256;48.728;9.140;2022-09-09T07:12:43;16.80;99.90
10419;DHT22;5256;48.728;9.140;2022-09-09T07:15:09;16.90;99.90
10419;DHT22;5256;48.728;9.140;2022-09-09T07:17:35;17.00;99.90
10419;DHT22;5256;48.728;9.140;2022-09-09T07:20:01;17.10;99.90
10419;DHT22;5256;48.728;9.140;2022-09-09T07:22:28;17.20;99.90
10419;DHT22;5256;48.728;9.140;2022-09-09T07:24:53;17.30;99.90
10419;DHT22;5256;48.728;9.140;2022-09-09T07:27:19;17.50;99.90
10419;DHT22;5256;48.728;9.140;2022-09-09T07:29:45;17.60;99.90
10419;DHT22;5256;48.728;9.140;2022-09-09T07:32:10;17.60;99.90
10419;DHT22;5256;48.728;9.140;2022-09-09T07:34:36;17.60;99.90
10419;DHT22;5256;48.728;9.140;2022-09-09T07:37:02;17.70;99.90
10419;DHT22;5256;48.728;9.140;2022-09-09T07:39:27;17.80;99.90
10419;DHT22;5256;48.728;9.140;2022-09-09T07:41:53;18.20;99.90
10419;DHT22;5256;48.728;9.140;2022-09-09T07:44:23;18.60;99.90
10419;DHT22;5256;48.728;9.140;2022-09-09T07:46:52;19.00;99.90
10419;DHT22;5256;48.728;9.140;2022-09-09T07:49:18;19.10;99.90
10419;DHT22;5256;48.728;9.140;2022-09-09T07:51:46;19.20;99.90
10419;DHT22;5256;48.728;9.140;2022-09-09T07:54:14;19.00;99.90
10419;DHT22;5256;48.728;9.140;2022-09-09T07:56:41;19.10;99.90
10419;DHT22;5256;48.728;9.140;2022-09-09T07:59:07;19.40;99.90
10419;DHT22;5256;48.728;9.140;2022-09-09T08:01:35;19.60;99.90
10419;DHT22;5256;48.728;9.140;2022-09-09T08:04:07;19.90;99.90
10419;DHT22;5256;48.728;9.140;2022-09-09T08:06:36;20.10;99.90
10419;DHT22;5256;48.728;9.140;2022-09-09T08:09:03;20.00;99.90
10419;DHT22;5256;48.728;9.140;2022-09-09T08:11:30;19.80;99.90
10419;DHT22;5256;48.728;9.140;2022-09-09T08:13:56;20.10;99.90
10419;DHT22;5256;48.728;9.140;2022-09-09T08:16:24;20.60;99.90
10419;DHT22;5256;48.728;9.140;2022-09-09T08:18:51;21.00;99.90
10419;DHT22;5256;48.728;9.140;2022-09-09T08:21:22;21.60;99.90
10419;DHT22;5256;48.728;9.140;2022-09-09T08:23:51;21.80;99.90
10419;DHT22;5256;48.728;9.140;2022-09-09T08:26:20;21.80;99.90
10419;DHT22;5256;48.728;9.140;2022-09-09T08:28:48;21.80;99.90
10419;DHT22;5256;48.728;9.140;2022-09-09T08:31:19;21.60;99.90
10419;DHT22;5256;48.728;9.140;2022-09-09T08:33:44;21.50;99.90
10419;DHT22;5256;48.728;9.140;2022-09-09T08:36:20;21.30;99.90
10419;DHT22;5256;48.728;9.140;2022-09-09T08:38:51;21.30;99.90
10419;DHT22;5256;48.728;9.140;2022-09-09T08:44:03;20.70;99.90
10419;DHT22;5256;48.728;9.140;2022-09-09T08:52:23;21.70;99.90
10419;DHT22;5256;48.728;9.140;2022-09-09T08:54:51;21.60;99.90
10419;DHT22;5256;48.728;9.140;2022-09-09T08:57:23;21.90;99.90
10419;DHT22;5256;48.728;9.140;2022-09-09T08:59:52;22.40;99.90
10419;DHT22;5256;48.728;9.140;2022-09-09T09:05:11;23.20;99.90
10419;DHT22;5256;48.728;9.140;2022-09-09T09:10:37;22.00;99.90
10419;DHT22;5256;48.728;9.140;2022-09-09T09:13:13;22.00;99.90
10419;DHT22;5256;48.728;9.140;2022-09-09T09:15:41;21.90;99.90
10419;DHT22;5256;48.728;9.140;2022-09-09T09:18:11;20.90;99.90
10419;DHT22;5256;48.728;9.140;2022-09-09T09:23:27;19.00;99.90
10419;DHT22;5256;48.728;9.140;2022-09-09T09:25:59;18.30;99.90
10419;DHT22;5256;48.728;9.140;2022-09-09T09:28:28;17.50;99.90
10419;DHT22;5256;48.728;9.140;2022-09-09T09:30:59;16.40;99.90
10419;DHT22;5256;48.728;9.140;2022-09-09T09:33:51;15.70;99.90
10419;DHT22;5256;48.728;9.140;2022-09-09T09:36:19;15.30;99.90
10419;DHT22;5256;48.728;9.140;2022-09-09T09:38:57;15.50;99.90
10419;DHT22;5256;48.728;9.140;2022-09-09T09:41:38;15.90;99.90
10419;DHT22;5256;48.728;9.140;2022-09-09T09:44:05;16.40;99.90
10419;DHT22;5256;48.728;9.140;2022-09-09T09:46:31;16.70;99.90
10419;DHT22;5256;48.728;9.140;2022-09-09T09:49:01;16.80;99.90
10419;DHT22;5256;48.728;9.140;2022-09-09T09:51:29;16.80;99.90
10419;DHT22;5256;48.728;9.140;2022-09-09T09:56:39;17.30;99.90
10419;DHT22;5256;48.728;9.140;2022-09-09T09:59:05;17.50;99.90
10419;DHT22;5256;48.728;9.140;2022-09-09T10:01:44;17.70;99.90
10419;DHT22;5256;48.728;9.140;2022-09-09T10:04:19;17.90;99.90
10419;DHT22;5256;48.728;9.140;2022-09-09T10:06:46;18.00;99.90
10419;DHT22;5256;48.728;9.140;2022-09-09T10:09:28;18.10;99.90
10419;DHT22;5256;48.728;9.140;2022-09-09T10:12:05;18.30;99.90
10419;DHT22;5256;48.728;9.140;2022-09-09T10:22:56;18.90;99.90
10419;DHT22;5256;48.728;9.140;2022-09-09T10:34:46;19.40;99.90
10419;DHT22;5256;48.728;9.140;2022-09-09T10:40:36;19.50;99.90
10419;DHT22;5256;48.728;9.140;2022-09-09T10:49:08;19.80;99.90
10419;DHT22;5256;48.728;9.140;2022-09-09T10:52:01;19.90;99.90
10419;DHT22;5256;48.728;9.140;2022-09-09T10:57:37;20.20;99.90
10419;DHT22;5256;48.728;9.140;2022-09-09T11:00:20;20.30;99.90
10419;DHT22;5256;48.728;9.140;2022-09-09T11:03:02;20.30;99.90
10419;DHT22;5256;48.728;9.140;2022-09-09T11:05:41;20.40;99.90
10419;DHT22;5256;48.728;9.140;2022-09-09T11:08:21;20.40;99.90
10419;DHT22;5256;48.728;9.140;2022-09-09T11:10:52;20.60;99.90
10419;DHT22;5256;48.728;9.140;2022-09-09T11:13:42;20.60;99.90
10419;DHT22;5256;48.728;9.140;2022-09-09T11:16:34;20.80;99.90
10419;DHT22;5256;48.728;9.140;2022-09-09T11:19:33;20.90;99.90
10419;DHT22;5256;48.728;9.140;2022-09-09T11:22:06;20.90;99.90
10419;DHT22;5256;48.728;9.140;2022-09-09T11:24:44;20.80;99.90
10419;DHT22;5256;48.728;9.140;2022-09-09T11:30:05;20.00;99.90
10419;DHT22;5256;48.728;9.140;2022-09-09T11:38:02;19.20;99.90
10419;DHT22;5256;48.728;9.140;2022-09-09T11:40:28;19.10;99.90
10419;DHT22;5256;48.728;9.140;2022-09-09T11:43:10;19.10;99.90
10419;DHT22;5256;48.728;9.140;2022-09-09T11:45:39;19.00;99.90
10419;DHT22;5256;48.728;9.140;2022-09-09T11:48:05;19.10;99.90
10419;DHT22;5256;48.728;9.140;2022-09-09T11:50:58;19.10;99.90
10419;DHT22;5256;48.728;9.140;2022-09-09T11:53:24;19.10;99.90
10419;DHT22;5256;48.728;9.140;2022-09-09T11:56:05;19.20;99.90
10419;DHT22;5256;48.728;9.140;2022-09-09T11:58:37;19.40;99.90
10419;DHT22;5256;48.728;9.140;2022-09-09T12:01:27;19.70;99.90
10419;DHT22;5256;48.728;9.140;2022-09-09T12:04:10;19.40;99.90
10419;DHT22;5256;48.728;9.140;2022-09-09T12:06:47;19.30;99.90
10419;DHT22;5256;48.728;9.140;2022-09-09T12:19:40;19.40;99.90
10419;DHT22;5256;48.728;9.140;2022-09-09T12:27:44;19.60;99.90
10419;DHT22;5256;48.728;9.140;2022-09-09T12:30:15;19.80;99.90
10419;DHT22;5256;48.728;9.140;2022-09-09T12:32:41;19.90;99.90
10419;DHT22;5256;48.728;9.140;2022-09-09T12:35:22;19.90;99.90
10419;DHT22;5256;48.728;9.140;2022-09-09T12:37:55;19.90;99.90
10419;DHT22;5256;48.728;9.140;2022-09-09T12:40:25;19.90;99.90
10419;DHT22;5256;48.728;9.140;2022-09-09T12:42:51;20.20;99.90
10419;DHT22;5256;48.728;9.140;2022-09-09T12:45:25;20.30;99.90
10419;DHT22;5256;48.728;9.140;2022-09-09T12:47:53;20.10;99.90
10419;DHT22;5256;48.728;9.140;2022-09-09T12:50:25;20.00;99.90
10419;DHT22;5256;48.728;9.140;2022-09-09T12:52:56;19.90;99.90
10419;DHT22;5256;48.728;9.140;2022-09-09T12:55:32;19.90;99.90
10419;DHT22;5256;48.728;9.140;2022-09-09T12:58:01;19.90;99.90
10419;DHT22;5256;48.728;9.140;2022-09-09T13:00:29;20.00;99.90
10419;DHT22;5256;48.728;9.140;2022-09-09T13:02:58;19.80;99.90
10419;DHT22;5256;48.728;9.140;2022-09-09T13:05:34;19.70;99.90
10419;DHT22;5256;48.728;9.140;2022-09-09T13:08:11;19.60;99.90
10419;DHT22;5256;48.728;9.140;2022-09-09T13:10:59;19.60;99.90
10419;DHT22;5256;48.728;9.140;2022-09-09T13:13:35;19.60;99.90
10419;DHT22;5256;48.728;9.140;2022-09-09T13:16:01;19.60;99.90
10419;DHT22;5256;48.728;9.140;2022-09-09T13:18:32;19.60;99.90
10419;DHT22;5256;48.728;9.140;2022-09-09T13:20:59;20.00;99.90
10419;DHT22;5256;48.728;9.140;2022-09-09T13:23:34;20.40;99.90
10419;DHT22;5256;48.728;9.140;2022-09-09T13:26:04;20.70;99.90
10419;DHT22;5256;48.728;9.140;2022-09-09T13:28:31;20.90;99.90
10419;DHT22;5256;48.728;9.140;2022-09-09T13:31:00;21.20;99.90
10419;DHT22;5256;48.728;9.140;2022-09-09T13:33:44;21.50;99.90
10419;DHT22;5256;48.728;9.140;2022-09-09T13:36:11;21.30;99.90
10419;DHT22;5256;48.728;9.140;2022-09-09T13:41:36;21.00;99.90
10419;DHT22;5256;48.728;9.140;2022-09-09T13:44:02;20.80;99.90
10419;DHT22;5256;48.728;9.140;2022-09-09T13:46:37;20.70;99.90
10419;DHT22;5256;48.728;9.140;2022-09-09T13:51:42;21.20;99.90
10419;DHT22;5256;48.728;9.140;2022-09-09T13:54:11;21.40;99.90
10419;DHT22;5256;48.728;9.140;2022-09-09T13:56:38;21.60;99.90
10419;DHT22;5256;48.728;9.140;2022-09-09T13:59:06;21.70;99.90
10419;DHT22;5256;48.728;9.140;2022-09-09T14:01:33;21.90;99.90
10419;DHT22;5256;48.728;9.140;2022-09-09T14:04:00;21.90;99.90
10419;DHT22;5256;48.728;9.140;2022-09-09T14:06:26;21.90;99.90
10419;DHT22;5256;48.728;9.140;2022-09-09T14:08:53;21.60;99.90
10419;DHT22;5256;48.728;9.140;2022-09-09T14:11:20;21.60;99.90
10419;DHT22;5256;48.728;9.140;2022-09-09T14:13:47;21.40;99.90
10419;DHT22;5256;48.728;9.140;2022-09-09T14:16:13;21.20;99.90
10419;DHT22;5256;48.728;9.140;2022-09-09T14:18:39;21.20;99.90
10419;DHT22;5256;48.728;9.140;2022-09-09T14:21:04;21.20;99.90
10419;DHT22;5256;48.728;9.140;2022-09-09T14:23:30;21.20;99.90
10419;DHT22;5256;48.728;9.140;2022-09-09T14:25:57;21.40;99.90
10419;DHT22;5256;48.728;9.140;2022-09-09T14:28:22;21.60;99.50
10419;DHT22;5256;48.728;9.140;2022-09-09T14:30:48;21.70;98.50
10419;DHT22;5256;48.728;9.140;2022-09-09T14:33:15;21.50;98.70
10419;DHT22;5256;48.728;9.140;2022-09-09T14:35:41;21.50;98.50
10419;DHT22;5256;48.728;9.140;2022-09-09T14:38:08;21.40;98.60
10419;DHT22;5256;48.728;9.140;2022-09-09T14:40:35;21.40;99.20
10419;DHT22;5256;48.728;9.140;2022-09-09T14:43:00;21.50;99.20
10419;DHT22;5256;48.728;9.140;2022-09-09T14:45:27;21.50;99.20
10419;DHT22;5256;48.728;9.140;2022-09-09T14:47:53;21.30;98.90
10419;DHT22;5256;48.728;9.140;2022-09-09T14:50:19;21.50;98.40
10419;DHT22;5256;48.728;9.140;2022-09-09T14:52:45;21.90;98.20
10419;DHT22;5256;48.728;9.140;2022-09-09T14:55:12;22.50;97.50
10419;DHT22;5256;48.728;9.140;2022-09-09T14:57:38;23.00;97.40
10419;DHT22;5256;48.728;9.140;2022-09-09T15:00:06;23.00;97.30
10419;DHT22;5256;48.728;9.140;2022-09-09T15:02:32;23.00;96.90
10419;DHT22;5256;48.728;9.140;2022-09-09T15:04:58;23.20;96.40
10419;DHT22;5256;48.728;9.140;2022-09-09T15:07:24;23.80;96.90
10419;DHT22;5256;48.728;9.140;2022-09-09T15:09:50;24.10;95.70
10419;DHT22;5256;48.728;9.140;2022-09-09T15:12:16;24.30;95.50
10419;DHT22;5256;48.728;9.140;2022-09-09T15:14:44;24.00;95.20
10419;DHT22;5256;48.728;9.140;2022-09-09T15:17:10;23.10;95.60
10419;DHT22;5256;48.728;9.140;2022-09-09T15:19:35;22.30;96.40
10419;DHT22;5256;48.728;9.140;2022-09-09T15:22:02;22.00;97.10
10419;DHT22;5256;48.728;9.140;2022-09-09T15:24:28;21.90;97.10
10419;DHT22;5256;48.728;9.140;2022-09-09T15:26:54;22.20;97.00
10419;DHT22;5256;48.728;9.140;2022-09-09T15:29:19;22.70;96.90
10419;DHT22;5256;48.728;9.140;2022-09-09T15:31:45;23.00;96.50
10419;DHT22;5256;48.728;9.140;2022-09-09T15:34:12;23.40;96.40
10419;DHT22;5256;48.728;9.140;2022-09-09T15:36:43;24.00;96.00
10419;DHT22;5256;48.728;9.140;2022-09-09T15:39:11;24.00;96.00
10419;DHT22;5256;48.728;9.140;2022-09-09T15:41:42;23.50;95.80
10419;DHT22;5256;48.728;9.140;2022-09-09T15:44:08;22.60;96.20
10419;DHT22;5256;48.728;9.140;2022-09-09T15:46:40;21.90;97.00
10419;DHT22;5256;48.728;9.140;2022-09-09T15:49:24;21.40;97.60
10419;DHT22;5256;48.728;9.140;2022-09-09T15:51:58;21.00;97.90
10419;DHT22;5256;48.728;9.140;2022-09-09T15:54:25;20.60;97.80
10419;DHT22;5256;48.728;9.140;2022-09-09T15:56:54;20.30;98.40
10419;DHT22;5256;48.728;9.140;2022-09-09T15:59:23;20.20;98.60
10419;DHT22;5256;48.728;9.140;2022-09-09T16:01:49;20.00;98.80
10419;DHT22;5256;48.728;9.140;2022-09-09T16:04:20;19.90;98.70
10419;DHT22;5256;48.728;9.140;2022-09-09T16:06:56;19.80;99.00
10419;DHT22;5256;48.728;9.140;2022-09-09T16:09:24;19.80;99.10
10419;DHT22;5256;48.728;9.140;2022-09-09T16:11:50;19.70;99.10
10419;DHT22;5256;48.728;9.140;2022-09-09T16:14:18;19.70;99.20
10419;DHT22;5256;48.728;9.140;2022-09-09T16:16:44;19.70;99.20
10419;DHT22;5256;48.728;9.140;2022-09-09T16:19:11;19.60;99.70
10419;DHT22;5256;48.728;9.140;2022-09-09T16:21:46;19.60;99.20
10419;DHT22;5256;48.728;9.140;2022-09-09T16:24:15;19.50;99.50
10419;DHT22;5256;48.728;9.140;2022-09-09T16:26:43;19.50;99.30
10419;DHT22;5256;48.728;9.140;2022-09-09T16:29:12;19.40;99.50
10419;DHT22;5256;48.728;9.140;2022-09-09T16:31:39;19.50;99.50
10419;DHT22;5256;48.728;9.140;2022-09-09T16:34:06;19.40;99.30
10419;DHT22;5256;48.728;9.140;2022-09-09T16:36:34;19.40;99.70
10419;DHT22;5256;48.728;9.140;2022-09-09T16:39:08;19.50;99.60
10419;DHT22;5256;48.728;9.140;2022-09-09T16:41:35;19.50;99.90
10419;DHT22;5256;48.728;9.140;2022-09-09T16:44:03;19.40;99.90
10419;DHT22;5256;48.728;9.140;2022-09-09T16:46:31;19.10;99.90
10419;DHT22;5256;48.728;9.140;2022-09-09T16:48:58;18.90;99.90
10419;DHT22;5256;48.728;9.140;2022-09-09T16:51:29;18.80;99.90
10419;DHT22;5256;48.728;9.140;2022-09-09T16:53:58;18.70;99.90
10419;DHT22;5256;48.728;9.140;2022-09-09T16:56:26;18.60;99.90
10419;DHT22;5256;48.728;9.140;2022-09-09T16:58:57;18.60;99.90
10419;DHT22;5256;48.728;9.140;2022-09-09T17:01:30;18.60;99.90
10419;DHT22;5256;48.728;9.140;2022-09-09T17:04:01;18.50;99.90
10419;DHT22;5256;48.728;9.140;2022-09-09T17:06:29;18.40;99.90
10419;DHT22;5256;48.728;9.140;2022-09-09T17:08:56;18.30;99.90
10419;DHT22;5256;48.728;9.140;2022-09-09T17:11:23;18.10;99.90
10419;DHT22;5256;48.728;9.140;2022-09-09T17:13:49;18.00;99.90
10419;DHT22;5256;48.728;9.140;2022-09-09T17:16:17;17.90;99.90
10419;DHT22;5256;48.728;9.140;2022-09-09T17:18:43;17.80;99.90
10419;DHT22;5256;48.728;9.140;2022-09-09T17:21:12;17.80;99.90
10419;DHT22;5256;48.728;9.140;2022-09-09T17:23:39;17.70;99.90
10419;DHT22;5256;48.728;9.140;2022-09-09T17:26:07;17.60;99.90
10419;DHT22;5256;48.728;9.140;2022-09-09T17:28:34;17.50;99.90
10419;DHT22;5256;48.728;9.140;2022-09-09T17:31:01;17.40;99.90
10419;DHT22;5256;48.728;9.140;2022-09-09T17:33:28;17.30;99.90
10419;DHT22;5256;48.728;9.140;2022-09-09T17:36:00;17.20;99.90
10419;DHT22;5256;48.728;9.140;2022-09-09T17:38:27;17.10;99.90
10419;DHT22;5256;48.728;9.140;2022-09-09T17:41:08;17.00;99.90
10419;DHT22;5256;48.728;9.140;2022-09-09T17:43:34;16.90;99.90
10419;DHT22;5256;48.728;9.140;2022-09-09T17:48:36;16.80;99.90
10419;DHT22;5256;48.728;9.140;2022-09-09T17:51:04;16.80;99.90
10419;DHT22;5256;48.728;9.140;2022-09-09T17:53:31;16.80;99.90
10419;DHT22;5256;48.728;9.140;2022-09-09T17:56:02;16.70;99.90
10419;DHT22;5256;48.728;9.140;2022-09-09T17:58:28;16.60;99.90